sensor_id;sensor_type;location;lat;lon;timestamp;P1;durP1;ratioP1;P2;durP2;ratioP2
30378;SDS011;17168;49.164;9.060;2022-07-06T00:01:54;3.35;;;2.55;;
30378;SDS011;17168;49.164;9.060;2022-07-06T00:04:21;3.08;;;2.45;;
30378;SDS011;17168;49.164;9.060;2022-07-06T00:06:48;4.55;;;2.50;;
30378;SDS011;17168;49.164;9.060;2022-07-06T00:09:15;4.80;;;2.45;;
30378;SDS011;17168;49.164;9.060;2022-07-06T00:11:42;6.43;;;3.08;;
30378;SDS011;17168;49.164;9.060;2022-07-06T00:14:09;5.88;;;2.70;;
30378;SDS011;17168;49.164;9.060;2022-07-06T00:16:37;4.53;;;2.67;;
30378;SDS011;17168;49.164;9.060;2022-07-06T00:19:04;8.93;;;2.58;;
30378;SDS011;17168;49.164;9.060;2022-07-06T00:21:31;5.95;;;2.65;;
30378;SDS011;17168;49.164;9.060;2022-07-06T00:23:58;3.88;;;2.70;;
30378;SDS011;17168;49.164;9.060;2022-07-06T00:26:24;3.75;;;2.40;;
30378;SDS011;17168;49.164;9.060;2022-07-06T00:28:51;4.25;;;2.63;;
30378;SDS011;17168;49.164;9.060;2022-07-06T00:31:18;5.10;;;2.65;;
30378;SDS011;17168;49.164;9.060;2022-07-06T00:33:46;5.63;;;2.60;;
30378;SDS011;17168;49.164;9.060;2022-07-06T00:36:13;2.92;;;2.40;;
30378;SDS011;17168;49.164;9.060;2022-07-06T00:38:40;11.38;;;2.88;;
30378;SDS011;17168;49.164;9.060;2022-07-06T00:41:07;6.57;;;2.83;;
30378;SDS011;17168;49.164;9.060;2022-07-06T00:43:47;4.47;;;2.60;;
30378;SDS011;17168;49.164;9.060;2022-07-06T00:46:14;4.38;;;3.35;;
30378;SDS011;17168;49.164;9.060;2022-07-06T00:48:41;8.02;;;3.70;;
30378;SDS011;17168;49.164;9.060;2022-07-06T00:51:09;7.85;;;3.72;;
30378;SDS011;17168;49.164;9.060;2022-07-06T00:53:38;7.38;;;3.63;;
30378;SDS011;17168;49.164;9.060;2022-07-06T00:56:06;7.05;;;3.70;;
30378;SDS011;17168;49.164;9.060;2022-07-06T00:58:33;6.03;;;3.97;;
30378;SDS011;17168;49.164;9.060;2022-07-06T01:01:00;4.38;;;3.53;;
30378;SDS011;17168;49.164;9.060;2022-07-06T01:03:27;9.52;;;3.67;;
30378;SDS011;17168;49.164;9.060;2022-07-06T01:05:54;7.78;;;3.85;;
30378;SDS011;17168;49.164;9.060;2022-07-06T01:08:22;9.25;;;3.70;;
30378;SDS011;17168;49.164;9.060;2022-07-06T01:10:50;7.00;;;3.28;;
30378;SDS011;17168;49.164;9.060;2022-07-06T01:13:17;7.00;;;3.58;;
30378;SDS011;17168;49.164;9.060;2022-07-06T01:15:44;8.10;;;3.30;;
30378;SDS011;17168;49.164;9.060;2022-07-06T01:18:11;7.43;;;3.65;;
30378;SDS011;17168;49.164;9.060;2022-07-06T01:20:40;6.85;;;3.38;;
30378;SDS011;17168;49.164;9.060;2022-07-06T01:23:07;8.70;;;3.78;;
30378;SDS011;17168;49.164;9.060;2022-07-06T01:25:33;5.65;;;3.58;;
30378;SDS011;17168;49.164;9.060;2022-07-06T01:28:00;8.60;;;3.28;;
30378;SDS011;17168;49.164;9.060;2022-07-06T01:30:27;4.30;;;3.53;;
30378;SDS011;17168;49.164;9.060;2022-07-06T01:32:54;6.10;;;3.97;;
30378;SDS011;17168;49.164;9.060;2022-07-06T01:35:21;5.18;;;3.80;;
30378;SDS011;17168;49.164;9.060;2022-07-06T01:37:51;6.90;;;3.75;;
30378;SDS011;17168;49.164;9.060;2022-07-06T01:40:18;7.72;;;3.60;;
30378;SDS011;17168;49.164;9.060;2022-07-06T01:42:45;6.47;;;3.45;;
30378;SDS011;17168;49.164;9.060;2022-07-06T01:45:12;5.85;;;3.47;;
30378;SDS011;17168;49.164;9.060;2022-07-06T01:47:39;7.25;;;3.60;;
30378;SDS011;17168;49.164;9.060;2022-07-06T01:50:07;6.68;;;3.38;;
30378;SDS011;17168;49.164;9.060;2022-07-06T01:52:34;4.88;;;3.00;;
30378;SDS011;17168;49.164;9.060;2022-07-06T01:55:03;5.45;;;3.40;;
30378;SDS011;17168;49.164;9.060;2022-07-06T01:57:31;7.03;;;3.50;;
30378;SDS011;17168;49.164;9.060;2022-07-06T01:59:57;6.65;;;3.30;;
30378;SDS011;17168;49.164;9.060;2022-07-06T02:02:24;13.80;;;3.40;;
30378;SDS011;17168;49.164;9.060;2022-07-06T02:04:51;4.10;;;3.38;;
30378;SDS011;17168;49.164;9.060;2022-07-06T02:07:18;5.47;;;3.47;;
30378;SDS011;17168;49.164;9.060;2022-07-06T02:09:45;10.77;;;3.85;;
30378;SDS011;17168;49.164;9.060;2022-07-06T02:12:13;6.00;;;3.33;;
30378;SDS011;17168;49.164;9.060;2022-07-06T02:14:40;6.45;;;3.90;;
30378;SDS011;17168;49.164;9.060;2022-07-06T02:17:06;5.47;;;3.60;;
30378;SDS011;17168;49.164;9.060;2022-07-06T02:19:33;9.52;;;3.60;;
30378;SDS011;17168;49.164;9.060;2022-07-06T02:22:00;5.75;;;3.05;;
30378;SDS011;17168;49.164;9.060;2022-07-06T02:24:27;5.85;;;3.28;;
30378;SDS011;17168;49.164;9.060;2022-07-06T02:26:54;3.78;;;2.80;;
30378;SDS011;17168;49.164;9.060;2022-07-06T02:29:22;4.82;;;2.63;;
30378;SDS011;17168;49.164;9.060;2022-07-06T02:31:49;5.40;;;2.60;;
30378;SDS011;17168;49.164;9.060;2022-07-06T02:34:16;4.93;;;2.83;;
30378;SDS011;17168;49.164;9.060;2022-07-06T02:36:42;4.57;;;2.72;;
30378;SDS011;17168;49.164;9.060;2022-07-06T02:39:09;5.95;;;3.00;;
30378;SDS011;17168;49.164;9.060;2022-07-06T02:41:36;4.53;;;3.05;;
30378;SDS011;17168;49.164;9.060;2022-07-06T02:44:03;7.15;;;3.00;;
30378;SDS011;17168;49.164;9.060;2022-07-06T02:46:31;9.48;;;3.15;;
30378;SDS011;17168;49.164;9.060;2022-07-06T02:48:58;5.95;;;2.97;;
30378;SDS011;17168;49.164;9.060;2022-07-06T02:51:25;5.13;;;3.00;;
30378;SDS011;17168;49.164;9.060;2022-07-06T02:53:52;5.53;;;3.13;;
30378;SDS011;17168;49.164;9.060;2022-07-06T02:56:18;9.00;;;3.30;;
30378;SDS011;17168;49.164;9.060;2022-07-06T02:58:45;5.30;;;2.97;;
30378;SDS011;17168;49.164;9.060;2022-07-06T03:01:12;6.43;;;3.25;;
30378;SDS011;17168;49.164;9.060;2022-07-06T03:03:41;7.47;;;2.97;;
30378;SDS011;17168;49.164;9.060;2022-07-06T03:06:07;7.03;;;3.17;;
30378;SDS011;17168;49.164;9.060;2022-07-06T03:08:34;7.22;;;2.90;;
30378;SDS011;17168;49.164;9.060;2022-07-06T03:11:01;7.25;;;3.10;;
30378;SDS011;17168;49.164;9.060;2022-07-06T03:13:28;5.40;;;2.40;;
30378;SDS011;17168;49.164;9.060;2022-07-06T03:15:55;5.97;;;3.20;;
30378;SDS011;17168;49.164;9.060;2022-07-06T03:18:22;16.52;;;3.03;;
30378;SDS011;17168;49.164;9.060;2022-07-06T03:20:51;6.22;;;3.00;;
30378;SDS011;17168;49.164;9.060;2022-07-06T03:23:18;5.03;;;2.92;;
30378;SDS011;17168;49.164;9.060;2022-07-06T03:25:45;6.07;;;3.17;;
30378;SDS011;17168;49.164;9.060;2022-07-06T03:28:12;25.27;;;3.15;;
30378;SDS011;17168;49.164;9.060;2022-07-06T03:30:39;5.10;;;3.40;;
30378;SDS011;17168;49.164;9.060;2022-07-06T03:33:05;6.32;;;3.70;;
30378;SDS011;17168;49.164;9.060;2022-07-06T03:35:32;5.95;;;3.50;;
30378;SDS011;17168;49.164;9.060;2022-07-06T03:38:00;4.03;;;3.03;;
30378;SDS011;17168;49.164;9.060;2022-07-06T03:40:28;6.80;;;3.47;;
30378;SDS011;17168;49.164;9.060;2022-07-06T03:42:55;10.32;;;3.20;;
30378;SDS011;17168;49.164;9.060;2022-07-06T03:45:22;10.00;;;3.80;;
30378;SDS011;17168;49.164;9.060;2022-07-06T03:47:49;5.93;;;3.13;;
30378;SDS011;17168;49.164;9.060;2022-07-06T03:50:16;7.32;;;3.45;;
30378;SDS011;17168;49.164;9.060;2022-07-06T03:52:43;8.18;;;3.17;;
30378;SDS011;17168;49.164;9.060;2022-07-06T03:55:11;5.55;;;2.95;;
30378;SDS011;17168;49.164;9.060;2022-07-06T03:57:38;6.45;;;3.45;;
30378;SDS011;17168;49.164;9.060;2022-07-06T04:00:07;6.95;;;3.08;;
30378;SDS011;17168;49.164;9.060;2022-07-06T04:02:35;7.88;;;3.63;;
30378;SDS011;17168;49.164;9.060;2022-07-06T04:05:02;4.65;;;3.45;;
30378;SDS011;17168;49.164;9.060;2022-07-06T04:07:29;6.95;;;3.10;;
30378;SDS011;17168;49.164;9.060;2022-07-06T04:09:56;4.82;;;3.13;;
30378;SDS011;17168;49.164;9.060;2022-07-06T04:12:24;8.95;;;3.60;;
30378;SDS011;17168;49.164;9.060;2022-07-06T04:14:51;6.75;;;3.40;;
30378;SDS011;17168;49.164;9.060;2022-07-06T04:17:18;9.80;;;3.58;;
30378;SDS011;17168;49.164;9.060;2022-07-06T04:20:05;6.43;;;3.42;;
30378;SDS011;17168;49.164;9.060;2022-07-06T04:22:32;7.22;;;3.90;;
30378;SDS011;17168;49.164;9.060;2022-07-06T04:24:59;7.45;;;3.92;;
30378;SDS011;17168;49.164;9.060;2022-07-06T04:27:27;6.40;;;3.72;;
30378;SDS011;17168;49.164;9.060;2022-07-06T04:29:54;6.03;;;3.65;;
30378;SDS011;17168;49.164;9.060;2022-07-06T04:32:21;5.40;;;3.78;;
30378;SDS011;17168;49.164;9.060;2022-07-06T04:34:51;12.75;;;3.70;;
30378;SDS011;17168;49.164;9.060;2022-07-06T04:37:17;6.53;;;3.17;;
30378;SDS011;17168;49.164;9.060;2022-07-06T04:39:44;5.45;;;3.55;;
30378;SDS011;17168;49.164;9.060;2022-07-06T04:42:11;6.70;;;3.38;;
30378;SDS011;17168;49.164;9.060;2022-07-06T04:44:39;7.72;;;3.63;;
30378;SDS011;17168;49.164;9.060;2022-07-06T04:47:06;6.60;;;3.53;;
30378;SDS011;17168;49.164;9.060;2022-07-06T04:49:33;9.57;;;3.78;;
30378;SDS011;17168;49.164;9.060;2022-07-06T04:52:00;8.13;;;3.30;;
30378;SDS011;17168;49.164;9.060;2022-07-06T04:54:27;7.50;;;3.38;;
30378;SDS011;17168;49.164;9.060;2022-07-06T04:56:54;6.85;;;3.47;;
30378;SDS011;17168;49.164;9.060;2022-07-06T04:59:20;7.43;;;3.45;;
30378;SDS011;17168;49.164;9.060;2022-07-06T05:01:48;6.18;;;3.55;;
30378;SDS011;17168;49.164;9.060;2022-07-06T05:04:16;7.22;;;3.10;;
30378;SDS011;17168;49.164;9.060;2022-07-06T05:06:45;5.88;;;3.35;;
30378;SDS011;17168;49.164;9.060;2022-07-06T05:09:13;6.03;;;3.20;;
30378;SDS011;17168;49.164;9.060;2022-07-06T05:11:40;9.20;;;3.60;;
30378;SDS011;17168;49.164;9.060;2022-07-06T05:14:06;5.35;;;3.10;;
30378;SDS011;17168;49.164;9.060;2022-07-06T05:16:33;9.65;;;3.35;;
30378;SDS011;17168;49.164;9.060;2022-07-06T05:19:02;7.25;;;3.58;;
30378;SDS011;17168;49.164;9.060;2022-07-06T05:21:29;6.22;;;3.25;;
30378;SDS011;17168;49.164;9.060;2022-07-06T05:23:55;6.38;;;3.15;;
30378;SDS011;17168;49.164;9.060;2022-07-06T05:26:22;7.03;;;3.33;;
30378;SDS011;17168;49.164;9.060;2022-07-06T05:28:49;9.32;;;3.28;;
30378;SDS011;17168;49.164;9.060;2022-07-06T05:31:16;13.40;;;3.30;;
30378;SDS011;17168;49.164;9.060;2022-07-06T05:33:43;14.45;;;3.55;;
30378;SDS011;17168;49.164;9.060;2022-07-06T05:36:11;10.25;;;3.58;;
30378;SDS011;17168;49.164;9.060;2022-07-06T05:38:38;8.98;;;3.63;;
30378;SDS011;17168;49.164;9.060;2022-07-06T05:41:05;12.23;;;3.50;;
30378;SDS011;17168;49.164;9.060;2022-07-06T05:43:32;22.40;;;4.13;;
30378;SDS011;17168;49.164;9.060;2022-07-06T05:46:01;18.80;;;4.40;;
30378;SDS011;17168;49.164;9.060;2022-07-06T05:48:27;16.10;;;4.38;;
30378;SDS011;17168;49.164;9.060;2022-07-06T05:51:14;17.38;;;4.25;;
30378;SDS011;17168;49.164;9.060;2022-07-06T05:53:41;10.50;;;3.67;;
30378;SDS011;17168;49.164;9.060;2022-07-06T05:56:08;15.75;;;4.30;;
30378;SDS011;17168;49.164;9.060;2022-07-06T05:58:35;12.65;;;3.78;;
30378;SDS011;17168;49.164;9.060;2022-07-06T06:01:02;10.63;;;3.38;;
30378;SDS011;17168;49.164;9.060;2022-07-06T06:03:28;9.43;;;3.28;;
30378;SDS011;17168;49.164;9.060;2022-07-06T06:05:55;13.02;;;4.00;;
30378;SDS011;17168;49.164;9.060;2022-07-06T06:08:23;6.40;;;3.40;;
30378;SDS011;17168;49.164;9.060;2022-07-06T06:10:51;7.53;;;3.10;;
30378;SDS011;17168;49.164;9.060;2022-07-06T06:13:18;7.38;;;3.20;;
30378;SDS011;17168;49.164;9.060;2022-07-06T06:15:45;9.43;;;3.10;;
30378;SDS011;17168;49.164;9.060;2022-07-06T06:18:12;11.75;;;3.15;;
30378;SDS011;17168;49.164;9.060;2022-07-06T06:20:39;8.75;;;3.72;;
30378;SDS011;17168;49.164;9.060;2022-07-06T06:23:06;5.65;;;3.10;;
30378;SDS011;17168;49.164;9.060;2022-07-06T06:25:35;8.63;;;3.00;;
30378;SDS011;17168;49.164;9.060;2022-07-06T06:28:03;7.72;;;2.80;;
30378;SDS011;17168;49.164;9.060;2022-07-06T06:30:31;9.63;;;3.33;;
30378;SDS011;17168;49.164;9.060;2022-07-06T06:33:05;10.77;;;3.30;;
30378;SDS011;17168;49.164;9.060;2022-07-06T06:35:34;8.27;;;3.53;;
30378;SDS011;17168;49.164;9.060;2022-07-06T06:38:02;9.77;;;3.00;;
30378;SDS011;17168;49.164;9.060;2022-07-06T06:40:29;5.40;;;2.97;;
30378;SDS011;17168;49.164;9.060;2022-07-06T06:42:57;7.95;;;3.40;;
30378;SDS011;17168;49.164;9.060;2022-07-06T06:45:24;4.32;;;3.08;;
30378;SDS011;17168;49.164;9.060;2022-07-06T06:47:51;8.77;;;3.10;;
30378;SDS011;17168;49.164;9.060;2022-07-06T06:50:18;11.25;;;2.88;;
30378;SDS011;17168;49.164;9.060;2022-07-06T06:52:45;8.57;;;3.17;;
30378;SDS011;17168;49.164;9.060;2022-07-06T06:55:11;5.57;;;2.80;;
30378;SDS011;17168;49.164;9.060;2022-07-06T06:57:38;7.50;;;2.90;;
30378;SDS011;17168;49.164;9.060;2022-07-06T07:00:07;6.80;;;3.28;;
30378;SDS011;17168;49.164;9.060;2022-07-06T07:02:35;7.50;;;3.00;;
30378;SDS011;17168;49.164;9.060;2022-07-06T07:05:02;5.85;;;2.67;;
30378;SDS011;17168;49.164;9.060;2022-07-06T07:07:29;8.70;;;3.22;;
30378;SDS011;17168;49.164;9.060;2022-07-06T07:09:56;6.75;;;3.63;;
30378;SDS011;17168;49.164;9.060;2022-07-06T07:12:22;8.43;;;3.30;;
30378;SDS011;17168;49.164;9.060;2022-07-06T07:14:49;5.53;;;2.83;;
30378;SDS011;17168;49.164;9.060;2022-07-06T07:17:18;10.20;;;2.90;;
30378;SDS011;17168;49.164;9.060;2022-07-06T07:19:45;4.93;;;2.45;;
30378;SDS011;17168;49.164;9.060;2022-07-06T07:22:12;6.63;;;2.60;;
30378;SDS011;17168;49.164;9.060;2022-07-06T07:24:39;6.82;;;3.28;;
30378;SDS011;17168;49.164;9.060;2022-07-06T07:27:06;6.32;;;2.85;;
30378;SDS011;17168;49.164;9.060;2022-07-06T07:29:33;6.28;;;3.13;;
30378;SDS011;17168;49.164;9.060;2022-07-06T07:32:00;6.05;;;3.22;;
30378;SDS011;17168;49.164;9.060;2022-07-06T07:34:28;8.20;;;2.70;;
30378;SDS011;17168;49.164;9.060;2022-07-06T07:36:55;7.32;;;2.95;;
30378;SDS011;17168;49.164;9.060;2022-07-06T07:39:21;5.13;;;2.85;;
30378;SDS011;17168;49.164;9.060;2022-07-06T07:41:48;8.65;;;3.17;;
30378;SDS011;17168;49.164;9.060;2022-07-06T07:44:16;6.28;;;3.13;;
30378;SDS011;17168;49.164;9.060;2022-07-06T07:46:43;8.98;;;2.72;;
30378;SDS011;17168;49.164;9.060;2022-07-06T07:49:10;6.28;;;3.03;;
30378;SDS011;17168;49.164;9.060;2022-07-06T07:51:45;7.40;;;3.00;;
30378;SDS011;17168;49.164;9.060;2022-07-06T07:54:12;5.80;;;3.13;;
30378;SDS011;17168;49.164;9.060;2022-07-06T07:56:39;4.65;;;2.95;;
30378;SDS011;17168;49.164;9.060;2022-07-06T07:59:09;4.25;;;2.55;;
30378;SDS011;17168;49.164;9.060;2022-07-06T08:01:36;5.60;;;3.05;;
30378;SDS011;17168;49.164;9.060;2022-07-06T08:04:03;6.05;;;2.65;;
30378;SDS011;17168;49.164;9.060;2022-07-06T08:06:30;8.18;;;3.53;;
30378;SDS011;17168;49.164;9.060;2022-07-06T08:08:59;8.05;;;2.97;;
30378;SDS011;17168;49.164;9.060;2022-07-06T08:11:26;7.45;;;2.85;;
30378;SDS011;17168;49.164;9.060;2022-07-06T08:13:52;10.55;;;2.95;;
30378;SDS011;17168;49.164;9.060;2022-07-06T08:16:19;6.13;;;3.35;;
30378;SDS011;17168;49.164;9.060;2022-07-06T08:18:46;5.60;;;3.10;;
30378;SDS011;17168;49.164;9.060;2022-07-06T08:21:13;10.23;;;3.40;;
30378;SDS011;17168;49.164;9.060;2022-07-06T08:23:51;10.52;;;3.15;;
30378;SDS011;17168;49.164;9.060;2022-07-06T08:26:19;5.82;;;2.65;;
30378;SDS011;17168;49.164;9.060;2022-07-06T08:28:46;5.70;;;2.78;;
30378;SDS011;17168;49.164;9.060;2022-07-06T08:31:13;6.30;;;2.90;;
30378;SDS011;17168;49.164;9.060;2022-07-06T08:34:00;8.60;;;3.10;;
30378;SDS011;17168;49.164;9.060;2022-07-06T08:36:27;5.45;;;2.85;;
30378;SDS011;17168;49.164;9.060;2022-07-06T08:38:54;5.68;;;3.05;;
30378;SDS011;17168;49.164;9.060;2022-07-06T08:41:23;10.30;;;2.95;;
30378;SDS011;17168;49.164;9.060;2022-07-06T08:43:52;6.70;;;3.08;;
30378;SDS011;17168;49.164;9.060;2022-07-06T08:46:19;9.30;;;3.35;;
30378;SDS011;17168;49.164;9.060;2022-07-06T08:48:47;8.27;;;3.20;;
30378;SDS011;17168;49.164;9.060;2022-07-06T08:51:15;7.45;;;3.13;;
30378;SDS011;17168;49.164;9.060;2022-07-06T08:53:43;7.80;;;2.83;;
30378;SDS011;17168;49.164;9.060;2022-07-06T08:56:11;5.97;;;3.42;;
30378;SDS011;17168;49.164;9.060;2022-07-06T08:58:40;9.57;;;3.35;;
30378;SDS011;17168;49.164;9.060;2022-07-06T09:01:08;8.68;;;3.22;;
30378;SDS011;17168;49.164;9.060;2022-07-06T09:03:38;5.00;;;2.70;;
30378;SDS011;17168;49.164;9.060;2022-07-06T09:06:06;8.15;;;2.85;;
30378;SDS011;17168;49.164;9.060;2022-07-06T09:08:33;6.68;;;3.28;;
30378;SDS011;17168;49.164;9.060;2022-07-06T09:11:02;6.57;;;3.30;;
30378;SDS011;17168;49.164;9.060;2022-07-06T09:13:30;7.97;;;3.13;;
30378;SDS011;17168;49.164;9.060;2022-07-06T09:16:08;11.50;;;3.38;;
30378;SDS011;17168;49.164;9.060;2022-07-06T09:18:56;8.90;;;3.10;;
30378;SDS011;17168;49.164;9.060;2022-07-06T09:21:24;7.60;;;3.58;;
30378;SDS011;17168;49.164;9.060;2022-07-06T09:23:52;9.02;;;3.22;;
30378;SDS011;17168;49.164;9.060;2022-07-06T09:26:20;5.97;;;2.90;;
30378;SDS011;17168;49.164;9.060;2022-07-06T09:28:48;6.43;;;3.10;;
30378;SDS011;17168;49.164;9.060;2022-07-06T09:31:16;5.53;;;2.75;;
30378;SDS011;17168;49.164;9.060;2022-07-06T09:33:53;9.75;;;3.65;;
30378;SDS011;17168;49.164;9.060;2022-07-06T09:39:17;8.48;;;2.95;;
30378;SDS011;17168;49.164;9.060;2022-07-06T09:41:49;6.78;;;3.00;;
30378;SDS011;17168;49.164;9.060;2022-07-06T09:44:21;8.23;;;2.50;;
30378;SDS011;17168;49.164;9.060;2022-07-06T09:46:50;9.30;;;3.53;;
30378;SDS011;17168;49.164;9.060;2022-07-06T09:49:18;12.20;;;3.40;;
30378;SDS011;17168;49.164;9.060;2022-07-06T09:51:46;6.35;;;3.17;;
30378;SDS011;17168;49.164;9.060;2022-07-06T09:54:13;5.10;;;2.90;;
30378;SDS011;17168;49.164;9.060;2022-07-06T09:56:42;5.72;;;2.90;;
30378;SDS011;17168;49.164;9.060;2022-07-06T09:59:13;5.68;;;2.80;;
30378;SDS011;17168;49.164;9.060;2022-07-06T10:01:41;10.13;;;3.40;;
30378;SDS011;17168;49.164;9.060;2022-07-06T10:04:13;8.35;;;3.25;;
30378;SDS011;17168;49.164;9.060;2022-07-06T10:06:41;8.82;;;3.30;;
30378;SDS011;17168;49.164;9.060;2022-07-06T10:09:09;9.75;;;3.53;;
30378;SDS011;17168;49.164;9.060;2022-07-06T10:11:39;5.35;;;2.95;;
30378;SDS011;17168;49.164;9.060;2022-07-06T10:14:08;6.65;;;2.90;;
30378;SDS011;17168;49.164;9.060;2022-07-06T10:16:38;9.35;;;2.70;;
30378;SDS011;17168;49.164;9.060;2022-07-06T10:19:06;6.93;;;3.20;;
30378;SDS011;17168;49.164;9.060;2022-07-06T10:21:37;6.97;;;3.42;;
30378;SDS011;17168;49.164;9.060;2022-07-06T10:24:05;8.95;;;3.20;;
30378;SDS011;17168;49.164;9.060;2022-07-06T10:26:33;10.13;;;2.92;;
30378;SDS011;17168;49.164;9.060;2022-07-06T10:29:01;8.30;;;3.25;;
30378;SDS011;17168;49.164;9.060;2022-07-06T10:31:29;8.45;;;3.20;;
30378;SDS011;17168;49.164;9.060;2022-07-06T10:33:58;9.27;;;3.20;;
30378;SDS011;17168;49.164;9.060;2022-07-06T10:36:26;8.68;;;3.28;;
30378;SDS011;17168;49.164;9.060;2022-07-06T10:38:56;10.65;;;3.13;;
30378;SDS011;17168;49.164;9.060;2022-07-06T10:41:30;5.22;;;3.00;;
30378;SDS011;17168;49.164;9.060;2022-07-06T10:43:58;10.93;;;3.20;;
30378;SDS011;17168;49.164;9.060;2022-07-06T10:46:40;8.50;;;3.50;;
30378;SDS011;17168;49.164;9.060;2022-07-06T10:49:14;6.47;;;3.15;;
30378;SDS011;17168;49.164;9.060;2022-07-06T10:52:02;6.80;;;3.22;;
30378;SDS011;17168;49.164;9.060;2022-07-06T10:54:33;8.50;;;3.28;;
30378;SDS011;17168;49.164;9.060;2022-07-06T10:57:08;9.93;;;3.20;;
30378;SDS011;17168;49.164;9.060;2022-07-06T10:59:36;8.82;;;3.20;;
30378;SDS011;17168;49.164;9.060;2022-07-06T11:02:13;7.85;;;3.45;;
30378;SDS011;17168;49.164;9.060;2022-07-06T11:04:42;8.32;;;3.25;;
30378;SDS011;17168;49.164;9.060;2022-07-06T11:07:10;9.95;;;3.28;;
30378;SDS011;17168;49.164;9.060;2022-07-06T11:09:40;5.47;;;3.10;;
30378;SDS011;17168;49.164;9.060;2022-07-06T11:12:17;7.55;;;3.22;;
30378;SDS011;17168;49.164;9.060;2022-07-06T11:14:45;7.10;;;3.40;;
30378;SDS011;17168;49.164;9.060;2022-07-06T11:17:13;6.57;;;3.30;;
30378;SDS011;17168;49.164;9.060;2022-07-06T11:19:47;10.60;;;3.15;;
30378;SDS011;17168;49.164;9.060;2022-07-06T11:22:16;8.50;;;3.13;;
30378;SDS011;17168;49.164;9.060;2022-07-06T11:24:46;8.30;;;2.80;;
30378;SDS011;17168;49.164;9.060;2022-07-06T11:27:13;5.57;;;2.88;;
30378;SDS011;17168;49.164;9.060;2022-07-06T11:29:40;11.32;;;3.60;;
30378;SDS011;17168;49.164;9.060;2022-07-06T11:32:08;6.68;;;3.03;;
30378;SDS011;17168;49.164;9.060;2022-07-06T11:34:37;9.60;;;3.40;;
30378;SDS011;17168;49.164;9.060;2022-07-06T11:37:06;7.75;;;3.13;;
30378;SDS011;17168;49.164;9.060;2022-07-06T11:39:35;12.30;;;3.35;;
30378;SDS011;17168;49.164;9.060;2022-07-06T11:42:04;6.22;;;2.90;;
30378;SDS011;17168;49.164;9.060;2022-07-06T11:44:31;8.10;;;2.95;;
30378;SDS011;17168;49.164;9.060;2022-07-06T11:46:59;8.25;;;3.42;;
30378;SDS011;17168;49.164;9.060;2022-07-06T11:49:30;12.38;;;2.90;;
30378;SDS011;17168;49.164;9.060;2022-07-06T11:51:57;7.20;;;3.22;;
30378;SDS011;17168;49.164;9.060;2022-07-06T11:54:24;11.93;;;3.88;;
30378;SDS011;17168;49.164;9.060;2022-07-06T11:56:53;6.40;;;2.78;;
30378;SDS011;17168;49.164;9.060;2022-07-06T11:59:23;11.10;;;2.95;;
30378;SDS011;17168;49.164;9.060;2022-07-06T12:01:57;6.38;;;2.80;;
30378;SDS011;17168;49.164;9.060;2022-07-06T12:04:26;9.27;;;3.50;;
30378;SDS011;17168;49.164;9.060;2022-07-06T12:06:53;10.35;;;3.20;;
30378;SDS011;17168;49.164;9.060;2022-07-06T12:09:20;10.18;;;3.45;;
30378;SDS011;17168;49.164;9.060;2022-07-06T12:11:48;7.07;;;3.50;;
30378;SDS011;17168;49.164;9.060;2022-07-06T12:14:15;7.05;;;3.20;;
30378;SDS011;17168;49.164;9.060;2022-07-06T12:16:44;9.75;;;3.17;;
30378;SDS011;17168;49.164;9.060;2022-07-06T12:19:12;13.32;;;3.20;;
30378;SDS011;17168;49.164;9.060;2022-07-06T12:21:44;6.65;;;2.78;;
30378;SDS011;17168;49.164;9.060;2022-07-06T12:24:19;8.45;;;2.80;;
30378;SDS011;17168;49.164;9.060;2022-07-06T12:26:48;9.45;;;2.92;;
30378;SDS011;17168;49.164;9.060;2022-07-06T12:29:15;5.82;;;2.90;;
30378;SDS011;17168;49.164;9.060;2022-07-06T12:31:49;8.50;;;3.00;;
30378;SDS011;17168;49.164;9.060;2022-07-06T12:34:18;6.40;;;2.22;;
30378;SDS011;17168;49.164;9.060;2022-07-06T12:36:47;7.90;;;2.28;;
30378;SDS011;17168;49.164;9.060;2022-07-06T12:39:15;4.00;;;1.98;;
30378;SDS011;17168;49.164;9.060;2022-07-06T12:41:44;11.43;;;2.30;;
30378;SDS011;17168;49.164;9.060;2022-07-06T12:44:13;6.25;;;2.45;;
30378;SDS011;17168;49.164;9.060;2022-07-06T12:46:42;6.80;;;2.10;;
30378;SDS011;17168;49.164;9.060;2022-07-06T12:49:14;7.10;;;1.90;;
30378;SDS011;17168;49.164;9.060;2022-07-06T12:51:49;11.63;;;2.30;;
30378;SDS011;17168;49.164;9.060;2022-07-06T12:54:21;13.02;;;2.40;;
30378;SDS011;17168;49.164;9.060;2022-07-06T12:57:05;5.07;;;2.03;;
30378;SDS011;17168;49.164;9.060;2022-07-06T12:59:34;9.93;;;2.30;;
30378;SDS011;17168;49.164;9.060;2022-07-06T13:02:03;6.57;;;2.00;;
30378;SDS011;17168;49.164;9.060;2022-07-06T13:04:33;6.50;;;1.50;;
30378;SDS011;17168;49.164;9.060;2022-07-06T13:07:00;9.63;;;1.90;;
30378;SDS011;17168;49.164;9.060;2022-07-06T13:09:33;4.90;;;1.80;;
30378;SDS011;17168;49.164;9.060;2022-07-06T13:12:00;6.07;;;1.85;;
30378;SDS011;17168;49.164;9.060;2022-07-06T13:14:27;5.13;;;1.83;;
30378;SDS011;17168;49.164;9.060;2022-07-06T13:16:54;3.80;;;1.55;;
30378;SDS011;17168;49.164;9.060;2022-07-06T13:19:21;4.22;;;2.05;;
30378;SDS011;17168;49.164;9.060;2022-07-06T13:21:49;3.63;;;1.80;;
30378;SDS011;17168;49.164;9.060;2022-07-06T13:24:16;6.82;;;1.95;;
30378;SDS011;17168;49.164;9.060;2022-07-06T13:26:43;7.90;;;2.33;;
30378;SDS011;17168;49.164;9.060;2022-07-06T13:29:10;7.22;;;1.85;;
30378;SDS011;17168;49.164;9.060;2022-07-06T13:31:38;4.85;;;2.00;;
30378;SDS011;17168;49.164;9.060;2022-07-06T13:34:06;5.22;;;1.70;;
30378;SDS011;17168;49.164;9.060;2022-07-06T13:36:33;4.95;;;1.98;;
30378;SDS011;17168;49.164;9.060;2022-07-06T13:39:02;8.73;;;1.88;;
30378;SDS011;17168;49.164;9.060;2022-07-06T13:41:29;10.95;;;2.10;;
30378;SDS011;17168;49.164;9.060;2022-07-06T13:43:56;4.30;;;1.70;;
30378;SDS011;17168;49.164;9.060;2022-07-06T13:46:23;3.85;;;1.55;;
30378;SDS011;17168;49.164;9.060;2022-07-06T13:48:50;7.25;;;2.40;;
30378;SDS011;17168;49.164;9.060;2022-07-06T13:51:17;12.77;;;1.90;;
30378;SDS011;17168;49.164;9.060;2022-07-06T13:53:44;5.85;;;1.95;;
30378;SDS011;17168;49.164;9.060;2022-07-06T13:56:12;3.72;;;1.90;;
30378;SDS011;17168;49.164;9.060;2022-07-06T13:58:39;6.10;;;1.80;;
30378;SDS011;17168;49.164;9.060;2022-07-06T14:01:06;7.65;;;1.88;;
30378;SDS011;17168;49.164;9.060;2022-07-06T14:03:33;6.82;;;1.85;;
30378;SDS011;17168;49.164;9.060;2022-07-06T14:06:03;7.05;;;1.80;;
30378;SDS011;17168;49.164;9.060;2022-07-06T14:08:33;6.75;;;1.90;;
30378;SDS011;17168;49.164;9.060;2022-07-06T14:11:00;3.92;;;1.77;;
30378;SDS011;17168;49.164;9.060;2022-07-06T14:13:30;4.90;;;1.85;;
30378;SDS011;17168;49.164;9.060;2022-07-06T14:15:57;11.07;;;1.90;;
30378;SDS011;17168;49.164;9.060;2022-07-06T14:18:24;9.00;;;2.22;;
30378;SDS011;17168;49.164;9.060;2022-07-06T14:20:51;4.63;;;2.45;;
30378;SDS011;17168;49.164;9.060;2022-07-06T14:23:19;3.67;;;1.90;;
30378;SDS011;17168;49.164;9.060;2022-07-06T14:25:47;9.30;;;1.95;;
30378;SDS011;17168;49.164;9.060;2022-07-06T14:28:14;6.13;;;3.28;;
30378;SDS011;17168;49.164;9.060;2022-07-06T14:30:43;8.00;;;3.60;;
30378;SDS011;17168;49.164;9.060;2022-07-06T14:33:11;4.55;;;2.47;;
30378;SDS011;17168;49.164;9.060;2022-07-06T14:35:39;10.32;;;5.30;;
30378;SDS011;17168;49.164;9.060;2022-07-06T14:38:08;4.38;;;2.70;;
30378;SDS011;17168;49.164;9.060;2022-07-06T14:40:35;3.15;;;1.73;;
30378;SDS011;17168;49.164;9.060;2022-07-06T14:43:03;5.80;;;2.92;;
30378;SDS011;17168;49.164;9.060;2022-07-06T14:45:30;3.58;;;1.60;;
30378;SDS011;17168;49.164;9.060;2022-07-06T14:47:58;6.75;;;1.90;;
30378;SDS011;17168;49.164;9.060;2022-07-06T14:50:25;5.38;;;1.30;;
30378;SDS011;17168;49.164;9.060;2022-07-06T14:52:52;2.65;;;1.65;;
30378;SDS011;17168;49.164;9.060;2022-07-06T14:55:20;4.47;;;1.40;;